This is the latest recevied weather packets stored in our database for station/object N7BTW-13. If no packets are shown the sender has not sent any weather packets the latest 10 day(s).
| Time | Temp. | Humidity | Pressure | Rain* | Wind** | Luminosity | Snow |
|---|---|---|---|---|---|---|---|
| 1787589069 | 21.67° C | 71% | - | 0 mm | - | - | - |
| 1787588406 | 20.56° C | 74% | - | 0 mm | - | - | - |
| 1787587809 | 19.44° C | 78% | - | 0 mm | - | - | - |
| 1787587207 | 18.89° C | 80% | - | 0 mm | - | - | - |
| 1787586608 | 18.33° C | 83% | - | 0 mm | - | - | - |
| 1787586012 | 17.22° C | 88% | - | 0 mm | - | - | - |
| 1787585409 | 14.44° C | 99% | - | 0 mm | - | - | - |
| 1787584808 | 13.89° C | 99% | - | 0 mm | - | - | - |
| 1787584208 | 13.89° C | 99% | - | 0 mm | - | - | - |
| 1787583607 | 13.33° C | 99% | - | 0 mm | - | - | - |
| 1787583007 | 12.78° C | 99% | - | 0 mm | - | - | - |
| 1787582408 | 12.22° C | 99% | - | 0 mm | - | - | - |
| 1787581806 | 12.22° C | 99% | - | 0 mm | - | - | - |
| 1787581208 | 11.67° C | 99% | - | 0 mm | - | - | - |
| 1787580608 | 11.11° C | 99% | - | 0 mm | - | - | - |
| 1787580007 | 11.11° C | 99% | - | 0 mm | - | - | - |
| 1787579412 | 11.11° C | 99% | - | 0 mm | - | - | - |
| 1787578807 | 11.11° C | 99% | - | 0 mm | - | - | - |
| 1787578207 | 11.67° C | 99% | - | 0 mm | - | - | - |
| 1787577607 | 11.67° C | 99% | - | 0 mm | - | - | - |
| 1787577009 | 11.67° C | 99% | - | 0 mm | - | - | - |
| 1787576409 | 11.67° C | 99% | - | 0 mm | - | - | - |
| 1787575808 | 11.67° C | 99% | - | 0 mm | - | - | - |
| 1787575206 | 12.22° C | 99% | - | 0 mm | - | - | - |
| 1787574607 | 12.22° C | 99% | - | 0 mm | - | - | - |
* Rain latest hour (hover to see other rain measurements)
** Current wind speed in m/s (hover to see current wind gust speed)